Terminal Aerodrome Forecast
Issued by NWS Denver/Boulder, CO

Home | Current Version | Previous Version | Text Only | Print | Product List | Glossary On
Versions: 1 2 3 4 5 6 7 8 9 10 11 12 13 14 15 16 17 18 19 20 21 22 23 24 25 26 27 28 29 30 31 32 33 34 35 36
000
FTUS45 KBOU 222324
TAFDEN
TAF
KDEN 222324Z 2300/2406 01018G28KT P6SM VCSH BKN110
     FM230200 33014KT P6SM SCT070 BKN110
     FM230600 29007KT P6SM SCT070 BKN110
     FM231100 03010KT P6SM SCT020 BKN070
      TEMPO 2314/2318 BKN020
     FM231800 07012KT P6SM SCT025 BKN050
      TEMPO 2319/2323 -SHRA BKN025
     FM232300 04012KT P6SM -SHRA BKN020 OVC045=

USA.gov is the U.S. government's official web portal to all federal, state and local government web resources and services.